createdAt,value
2023-05-08T00:04:16.041Z,93819.47
2023-05-08T00:09:23.726Z,93815.69
2023-05-08T00:14:30.442Z,93819.84
2023-05-08T00:19:37.647Z,93818.25
2023-05-08T00:24:44.578Z,93812.58
2023-05-08T00:29:51.756Z,93804.61
2023-05-08T00:34:58.868Z,93803.22
2023-05-08T00:40:06.737Z,93806.00
2023-05-08T00:45:13.647Z,93811.17
2023-05-08T00:50:21.525Z,93812.04
2023-05-08T00:55:28.749Z,93819.57
2023-05-08T01:00:36.122Z,93815.84
2023-05-08T01:05:43.842Z,93818.77
2023-05-08T01:11:00.955Z,93813.06
2023-05-08T01:16:27.425Z,93840.30
2023-05-08T01:21:56.701Z,93821.53
2023-05-08T01:27:44.343Z,93832.12
2023-05-08T01:33:03.979Z,93824.52
2023-05-08T01:38:20.966Z,93835.09
2023-05-08T01:43:50.061Z,93825.34
2023-05-08T01:49:09.958Z,93840.99
2023-05-08T01:54:23.245Z,93838.68
2023-05-08T01:59:31.918Z,93839.57
2023-05-08T02:04:40.862Z,93840.96
2023-05-08T02:09:48.676Z,93844.38
2023-05-08T02:14:57.397Z,93877.11
2023-05-08T02:20:08.045Z,93848.42
2023-05-08T02:25:17.431Z,93849.31
2023-05-08T02:30:27.387Z,93846.94
2023-05-08T02:35:35.862Z,93852.00
2023-05-08T02:40:46.913Z,93855.98
2023-05-08T02:46:18.021Z,93858.66
2023-05-08T02:51:29.334Z,93863.45
2023-05-08T02:56:43.408Z,93876.44
2023-05-08T03:01:57.729Z,93882.02
2023-05-08T03:07:07.883Z,93887.29
2023-05-08T03:12:22.245Z,93889.61
2023-05-08T03:17:32.500Z,93895.52
2023-05-08T03:22:40.760Z,93886.34
2023-05-08T03:27:49.137Z,93884.36
2023-05-08T03:32:58.852Z,93890.58
2023-05-08T03:38:07.169Z,93891.31
2023-05-08T03:43:14.309Z,93899.08
2023-05-08T03:48:22.932Z,93904.23
2023-05-08T03:53:31.175Z,93902.83
2023-05-08T03:58:45.649Z,93907.41
2023-05-08T04:03:59.915Z,93911.13
2023-05-08T04:09:35.303Z,93913.96
2023-05-08T04:14:46.626Z,93929.34
2023-05-08T04:19:57.740Z,93935.23
2023-05-08T04:25:08.291Z,93941.08
2023-05-08T04:30:16.658Z,93946.56
2023-05-08T04:35:24.306Z,93947.30
2023-05-08T04:40:31.400Z,93949.80
2023-05-08T04:45:38.266Z,93962.68
2023-05-08T04:50:45.158Z,93966.67
2023-05-08T04:55:52.180Z,93972.48
2023-05-08T05:00:59.109Z,93986.01
2023-05-08T05:06:06.115Z,93979.29
2023-05-08T05:11:12.824Z,93971.91
2023-05-08T05:16:20.236Z,93975.61
2023-05-08T05:21:28.344Z,93974.10
2023-05-08T05:26:36.854Z,93983.00
2023-05-08T05:31:44.021Z,93979.02
2023-05-08T05:36:51.413Z,93980.47
2023-05-08T05:41:58.673Z,93974.59
2023-05-08T05:47:17.527Z,93973.67
2023-05-08T05:52:24.592Z,93971.28
2023-05-08T05:57:31.875Z,93977.64
2023-05-08T06:02:41.162Z,93975.28
2023-05-08T06:07:48.254Z,93978.97
2023-05-08T06:12:55.355Z,93971.68
2023-05-08T06:18:02.563Z,93975.85
2023-05-08T06:23:09.936Z,93981.10
2023-05-08T06:28:16.884Z,93983.74
2023-05-08T06:33:27.285Z,93989.28
2023-05-08T06:38:34.320Z,93987.08
2023-05-08T06:43:41.531Z,93989.55
2023-05-08T06:48:48.532Z,94000.81
2023-05-08T06:53:55.904Z,93997.94
2023-05-08T06:59:15.548Z,94000.47
2023-05-08T07:04:24.214Z,94002.42
2023-05-08T07:09:31.681Z,94011.03
2023-05-08T07:14:39.917Z,94015.77
2023-05-08T07:19:48.671Z,94023.73
2023-05-08T07:24:55.681Z,94024.21
2023-05-08T07:30:04.664Z,94025.51
2023-05-08T07:35:13.437Z,94023.38
2023-05-08T07:40:20.872Z,94033.45
2023-05-08T07:45:28.112Z,94026.91
2023-05-08T07:50:56.892Z,94029.58
2023-05-08T07:56:02.884Z,94031.23
2023-05-08T08:01:10.003Z,94025.36
2023-05-08T08:06:18.716Z,94031.45
2023-05-08T08:11:25.912Z,94037.09
2023-05-08T08:16:32.847Z,94035.67
2023-05-08T08:21:44.742Z,94034.08
2023-05-08T08:26:52.128Z,94031.62
2023-05-08T08:31:59.592Z,94033.66
2023-05-08T08:37:08.504Z,94032.87
2023-05-08T08:42:16.285Z,94031.45
2023-05-08T08:47:34.205Z,94040.69
2023-05-08T08:53:03.946Z,94038.83
2023-05-08T08:58:27.140Z,94040.30
2023-05-08T09:03:34.797Z,94038.96
2023-05-08T09:08:43.295Z,94041.14
2023-05-08T09:13:52.141Z,94050.17
2023-05-08T09:18:59.334Z,94049.10
2023-05-08T09:24:07.967Z,94058.40
2023-05-08T09:29:22.824Z,94064.95
2023-05-08T09:34:33.656Z,94061.03
2023-05-08T09:39:42.445Z,94057.59
2023-05-08T09:44:58.134Z,94059.05
2023-05-08T09:50:10.894Z,94065.47
2023-05-08T09:55:18.082Z,94069.06
2023-05-08T10:00:28.095Z,94069.71
2023-05-08T10:05:59.049Z,94073.97
2023-05-08T10:11:22.780Z,94083.80
2023-05-08T10:16:32.262Z,94072.09
2023-05-08T10:21:41.014Z,94075.59
2023-05-08T10:27:17.853Z,94078.00
2023-05-08T10:32:26.790Z,94074.54
2023-05-08T10:37:36.416Z,94078.02
2023-05-08T10:42:43.932Z,94072.36
2023-05-08T10:48:19.319Z,94074.66
2023-05-08T10:53:59.679Z,94078.55
2023-05-08T10:59:07.732Z,94081.08
2023-05-08T11:04:25.613Z,94083.25
2023-05-08T11:09:46.136Z,94085.24
2023-05-08T11:15:09.636Z,94084.64
2023-05-08T11:20:16.613Z,94090.70
2023-05-08T11:25:28.150Z,94091.56
2023-05-08T11:30:42.181Z,94090.38
2023-05-08T11:36:02.763Z,94084.37
2023-05-08T11:41:23.943Z,94091.94
2023-05-08T11:46:38.070Z,94086.56
2023-05-08T11:51:47.152Z,94092.30
2023-05-08T11:56:55.877Z,94085.98
2023-05-08T12:02:09.123Z,94093.94
2023-05-08T12:07:18.398Z,94087.23
2023-05-08T12:12:25.241Z,94094.16
2023-05-08T12:17:32.276Z,94096.34
2023-05-08T12:22:39.849Z,94099.85
2023-05-08T12:27:50.506Z,94102.61
2023-05-08T12:32:58.628Z,94116.45
2023-05-08T12:38:08.352Z,94096.54
2023-05-08T12:43:16.484Z,94103.22
2023-05-08T12:48:23.724Z,94097.07
2023-05-08T12:53:33.371Z,94098.53
2023-05-08T12:58:41.350Z,94104.98
2023-05-08T13:04:01.038Z,94109.78
2023-05-08T13:09:00.245Z,94097.41
2023-05-08T13:14:07.319Z,94092.88
2023-05-08T13:19:15.950Z,94089.56
2023-05-08T13:24:23.099Z,94087.39
2023-05-08T13:29:30.177Z,94086.92
2023-05-08T13:34:41.496Z,94092.02
2023-05-08T13:39:46.412Z,94083.12
2023-05-08T13:44:53.211Z,94081.28
2023-05-08T13:50:00.694Z,94089.70
2023-05-08T13:55:09.969Z,94089.17
2023-05-08T14:00:18.866Z,94085.33
2023-05-08T14:05:26.005Z,94083.12
2023-05-08T14:10:33.288Z,94086.59
2023-05-08T14:15:40.809Z,94085.93
2023-05-08T14:20:56.558Z,94086.95
2023-05-08T14:25:57.075Z,94077.69
2023-05-08T14:31:04.455Z,94086.48
2023-05-08T14:36:12.161Z,94082.98
2023-05-08T14:41:19.323Z,94078.37
2023-05-08T14:46:26.468Z,93920.20
2023-05-08T14:51:33.813Z,94073.95
2023-05-08T14:56:47.252Z,94075.78
2023-05-08T15:01:49.614Z,94073.69
2023-05-08T15:06:56.437Z,94080.88
2023-05-08T15:12:04.140Z,94078.78
2023-05-08T15:17:13.002Z,93906.15
2023-05-08T15:22:19.957Z,94085.16
2023-05-08T15:27:26.779Z,94080.41
2023-05-08T15:32:33.651Z,94083.06
2023-05-08T15:37:41.270Z,94085.98
2023-05-08T15:42:48.086Z,94078.28
2023-05-08T15:47:55.927Z,94080.67
2023-05-08T15:53:02.883Z,94083.59
2023-05-08T15:58:09.733Z,94084.09
2023-05-08T16:03:16.942Z,94074.56
2023-05-08T16:08:25.027Z,94074.84
2023-05-08T16:13:32.484Z,94066.30
2023-05-08T16:18:39.368Z,94064.48
2023-05-08T16:23:46.436Z,94072.19
2023-05-08T16:28:53.235Z,94066.60
2023-05-08T16:34:00.127Z,94066.60
2023-05-08T16:39:07.255Z,94059.93
2023-05-08T16:44:16.030Z,94061.55
2023-05-08T16:49:22.903Z,94067.95
2023-05-08T16:54:29.786Z,94070.34
2023-05-08T16:59:37.093Z,94073.53
2023-05-08T17:04:45.597Z,94073.00
2023-05-08T17:09:55.861Z,94075.92
2023-05-08T17:15:02.834Z,94081.23
2023-05-08T17:20:11.861Z,94082.30
2023-05-08T17:25:19.110Z,94096.08
2023-05-08T17:30:26.653Z,94085.98
2023-05-08T17:35:34.171Z,94087.58
2023-05-08T17:40:41.126Z,94089.41
2023-05-08T17:45:48.159Z,94094.41
2023-05-08T17:50:55.472Z,94101.84
2023-05-08T17:56:02.289Z,94100.47
2023-05-08T18:01:09.447Z,94104.10
2023-05-08T18:06:20.773Z,94110.98
2023-05-08T18:11:28.975Z,94112.34
2023-05-08T18:16:36.135Z,94118.45
2023-05-08T18:21:43.211Z,94118.64
2023-05-08T18:26:52.480Z,94123.42
2023-05-08T18:31:59.366Z,94127.39
2023-05-08T18:37:06.314Z,94120.23
2023-05-08T18:42:14.958Z,94132.13
2023-05-08T18:47:21.882Z,94142.51
2023-05-08T18:52:28.976Z,94144.23
2023-05-08T18:57:43.476Z,94143.84
2023-05-08T19:02:55.565Z,94146.39
2023-05-08T19:08:03.546Z,94151.42
2023-05-08T19:13:10.338Z,94153.63
2023-05-08T19:18:18.372Z,94161.27
2023-05-08T19:23:25.141Z,94161.80
2023-05-08T19:28:32.633Z,94170.50
2023-05-08T19:33:39.560Z,94166.03
2023-05-08T19:38:46.720Z,94164.39
2023-05-08T19:43:53.635Z,94158.58
2023-05-08T19:49:01.109Z,94158.09
2023-05-08T19:54:08.711Z,94159.31
2023-05-08T19:59:16.132Z,94163.96
2023-05-08T20:04:24.520Z,94169.48
2023-05-08T20:09:32.128Z,94163.39
2023-05-08T20:14:39.094Z,94170.37
2023-05-08T20:19:46.306Z,94170.08
2023-05-08T20:24:53.261Z,94174.48
2023-05-08T20:30:00.212Z,94176.09
2023-05-08T20:35:07.902Z,94176.25
2023-05-08T20:40:15.454Z,94178.23
2023-05-08T20:45:22.512Z,94172.19
2023-05-08T20:50:29.544Z,94173.52
2023-05-08T20:55:36.575Z,94172.74
2023-05-08T21:00:43.800Z,94171.74
2023-05-08T21:05:52.646Z,94175.12
2023-05-08T21:10:59.673Z,94175.12
2023-05-08T21:16:08.786Z,94173.45
2023-05-08T21:21:20.993Z,94173.70
2023-05-08T21:26:28.035Z,94170.15
2023-05-08T21:31:37.797Z,94168.77
2023-05-08T21:36:45.355Z,94165.06
2023-05-08T21:41:52.656Z,94163.20
2023-05-08T21:46:59.815Z,94155.80
2023-05-08T21:52:07.116Z,94157.12
2023-05-08T21:57:15.581Z,94156.91
2023-05-08T22:02:23.223Z,94154.47
2023-05-08T22:07:30.272Z,94150.95
2023-05-08T22:12:37.550Z,94148.42
2023-05-08T22:17:48.211Z,94144.83
2023-05-08T22:22:55.317Z,94140.86
2023-05-08T22:28:04.142Z,94143.67
2023-05-08T22:33:11.229Z,94142.19
2023-05-08T22:38:18.157Z,94132.02
2023-05-08T22:43:25.483Z,94131.94
2023-05-08T22:48:33.473Z,94137.38
2023-05-08T22:53:40.378Z,94126.77
2023-05-08T22:58:47.234Z,94126.91
2023-05-08T23:03:57.146Z,94123.99
2023-05-08T23:09:04.776Z,94128.09
2023-05-08T23:14:12.891Z,94123.00
2023-05-08T23:19:20.081Z,94122.69
2023-05-08T23:24:28.110Z,94119.27
2023-05-08T23:29:34.930Z,94118.01
2023-05-08T23:34:43.894Z,94113.66
2023-05-08T23:39:51.106Z,94109.90
2023-05-08T23:44:59.239Z,94094.93
2023-05-08T23:50:08.542Z,94095.44
2023-05-08T23:55:15.764Z,94095.29
